Terminal Aerodrome Forecast
Issued by NWS Binghamton, NY

Home | Current Version | Previous Version | Text Only | Print | Product List | Glossary On
Versions: 1 2 3 4 5 6 7 8 9 10 11 12 13 14 15 16 17 18 19
000
FTUS41 KBGM 311100
TAFSYR
TAF
KSYR 311137Z 3112/0112 32010KT P6SM -SHSN BKN025
     FM010000 25008KT P6SM OVC035
     FM010600 29008KT P6SM -SHSN OVC015=

USA.gov is the U.S. government's official web portal to all federal, state and local government web resources and services.